Time;durP1;ratioP1;P1;durP2;ratioP2;P2;SDS_P1;SDS_P2;PMS_P1;PMS_P2;Temp;Humidity;BMP_temperature;BMP_pressure;BME280_temperature;BME280_humidity;BME280_pressure;Samples;Min_cycle;Max_cycle;Signal;HPM_P1;HPM_P2
2024/01/20 00:01:20;;;;;;;30.17;13.45;;;6.00;99.90;;;;;;5013470;28;20109;-81
2024/01/20 00:03:45;;;;;;;28.25;13.18;;;6.00;99.90;;;;;;5008283;28;20777;-82
2024/01/20 00:06:11;;;;;;;31.00;13.25;;;6.00;99.90;;;;;;5023822;28;20021;-81
2024/01/20 00:08:37;;;;;;;32.90;14.65;;;6.00;99.90;;;;;;5011088;28;20033;-81
2024/01/20 00:11:02;;;;;;;28.17;13.77;;;6.00;99.90;;;;;;5038486;28;20024;-81
2024/01/20 00:13:28;;;;;;;35.22;14.25;;;6.00;99.90;;;;;;5014226;28;20046;-81
2024/01/20 00:15:53;;;;;;;26.25;13.68;;;6.00;99.90;;;;;;5014178;28;20032;-80
2024/01/20 00:18:19;;;;;;;29.73;13.10;;;6.00;99.90;;;;;;5026028;28;20041;-82
2024/01/20 00:20:45;;;;;;;30.83;13.20;;;6.00;99.90;;;;;;5009328;28;20041;-81
2024/01/20 00:23:12;;;;;;;36.92;15.38;;;6.00;99.90;;;;;;5015318;28;20025;-81
2024/01/20 00:25:39;;;;;;;34.13;13.73;;;6.00;99.90;;;;;;5014640;28;20036;-82
2024/01/20 00:28:05;;;;;;;32.17;14.27;;;6.00;99.90;;;;;;5006956;28;20765;-82
2024/01/20 00:30:30;;;;;;;30.20;13.23;;;6.00;99.90;;;;;;5013810;28;20117;-81
2024/01/20 00:32:56;;;;;;;30.88;13.10;;;6.00;99.90;;;;;;5014535;28;20019;-83
2024/01/20 00:35:21;;;;;;;29.55;13.27;;;6.00;99.90;;;;;;5008541;28;20027;-80
2024/01/20 00:37:47;;;;;;;29.30;13.32;;;6.00;99.90;;;;;;5013922;28;20021;-81
2024/01/20 00:40:12;;;;;;;31.65;12.77;;;6.00;99.90;;;;;;5013951;28;20391;-82
2024/01/20 00:42:38;;;;;;;33.10;14.38;;;6.00;99.90;;;;;;5027868;28;20426;-81
2024/01/20 00:45:05;;;;;;;32.15;13.80;;;5.90;99.90;;;;;;5013284;28;20075;-82
2024/01/20 00:47:30;;;;;;;31.98;14.25;;;5.90;99.90;;;;;;5032581;28;20101;-81
2024/01/20 00:49:56;;;;;;;32.03;13.90;;;6.00;99.90;;;;;;5016350;28;20108;-83
2024/01/20 00:52:21;;;;;;;34.05;13.18;;;6.00;99.90;;;;;;5014055;28;20092;-81
2024/01/20 00:54:47;;;;;;;32.90;13.75;;;6.00;99.90;;;;;;5010809;28;20116;-80
2024/01/20 00:57:13;;;;;;;34.13;14.68;;;6.00;99.90;;;;;;5024963;28;20033;-82
2024/01/20 00:59:38;;;;;;;31.05;13.63;;;5.90;99.90;;;;;;5024791;28;20018;-81
2024/01/20 01:02:04;;;;;;;35.90;14.98;;;5.90;99.90;;;;;;5014325;28;20025;-82
2024/01/20 01:04:29;;;;;;;33.85;13.75;;;6.00;99.90;;;;;;5013078;28;20026;-81
2024/01/20 01:06:55;;;;;;;33.65;14.50;;;5.90;99.90;;;;;;5030304;28;20033;-81
2024/01/20 01:09:21;;;;;;;36.42;14.90;;;6.00;99.90;;;;;;5024595;28;20117;-81
2024/01/20 01:11:46;;;;;;;32.40;14.75;;;5.90;99.90;;;;;;5011024;28;20536;-82
2024/01/20 01:14:12;;;;;;;34.90;13.55;;;5.90;99.90;;;;;;5032328;28;20013;-81
2024/01/20 01:16:38;;;;;;;27.45;12.35;;;5.90;99.90;;;;;;5015929;28;20071;-82
2024/01/20 01:19:04;;;;;;;34.42;14.48;;;5.90;99.90;;;;;;5013230;28;20104;-81
2024/01/20 01:21:29;;;;;;;36.95;14.43;;;5.90;99.90;;;;;;5006804;28;20030;-80
2024/01/20 01:23:55;;;;;;;35.28;14.18;;;5.90;99.90;;;;;;5025157;28;20032;-81
2024/01/20 01:26:21;;;;;;;29.70;14.13;;;5.90;99.90;;;;;;5013711;28;20025;-81
2024/01/20 01:28:47;;;;;;;30.75;13.55;;;5.90;99.90;;;;;;5030251;28;20491;-81
2024/01/20 01:31:13;;;;;;;32.13;13.02;;;5.90;99.90;;;;;;5010192;28;20033;-81
2024/01/20 01:33:38;;;;;;;29.58;13.13;;;5.90;99.90;;;;;;5012421;28;20396;-82
2024/01/20 01:36:04;;;;;;;29.67;13.50;;;5.90;99.90;;;;;;5012546;28;20017;-82
2024/01/20 01:38:30;;;;;;;28.27;12.90;;;5.90;99.90;;;;;;5014852;28;20021;-82
2024/01/20 01:40:56;;;;;;;31.60;13.75;;;5.90;99.90;;;;;;5012651;28;20052;-82
2024/01/20 01:43:21;;;;;;;27.25;13.25;;;5.90;99.90;;;;;;5012060;28;20068;-81
2024/01/20 01:45:47;;;;;;;26.77;12.95;;;6.00;99.90;;;;;;5008993;28;20072;-81
2024/01/20 01:48:12;;;;;;;32.17;14.43;;;6.00;99.90;;;;;;5024486;28;20033;-81
2024/01/20 01:50:38;;;;;;;36.33;15.25;;;5.90;99.90;;;;;;5012683;28;20025;-82
2024/01/20 01:53:05;;;;;;;32.30;14.73;;;6.00;99.90;;;;;;5035903;28;20025;-82
2024/01/20 01:55:33;;;;;;;43.33;14.82;;;6.00;99.90;;;;;;5031142;28;20112;-81
2024/01/20 01:57:59;;;;;;;30.52;14.25;;;6.00;99.90;;;;;;5006309;28;20022;-81
2024/01/20 02:00:25;;;;;;;31.95;14.55;;;5.90;99.90;;;;;;5007783;28;20026;-82
2024/01/20 02:02:51;;;;;;;31.27;14.18;;;5.90;99.90;;;;;;5012910;28;20121;-81
2024/01/20 02:05:17;;;;;;;29.65;14.02;;;5.90;99.90;;;;;;5032864;28;20518;-82
2024/01/20 02:07:44;;;;;;;32.70;13.80;;;5.90;99.90;;;;;;5030462;28;20018;-81
2024/01/20 02:10:10;;;;;;;35.15;14.82;;;5.90;99.90;;;;;;5012200;28;20052;-81
2024/01/20 02:12:38;;;;;;;36.60;14.82;;;5.90;99.90;;;;;;5025026;28;20026;-81
2024/01/20 02:15:04;;;;;;;38.47;14.57;;;5.90;99.90;;;;;;5012773;28;20014;-82
2024/01/20 02:17:30;;;;;;;32.50;13.13;;;5.90;99.90;;;;;;5017904;28;20021;-82
2024/01/20 02:19:55;;;;;;;33.30;15.27;;;5.90;99.90;;;;;;5030641;28;20070;-82
2024/01/20 02:22:21;;;;;;;30.55;13.32;;;5.90;99.90;;;;;;5010970;28;20056;-80
2024/01/20 02:24:49;;;;;;;33.42;14.50;;;5.90;99.90;;;;;;5013655;28;20028;-81
2024/01/20 02:27:18;;;;;;;37.45;13.75;;;5.90;99.90;;;;;;5012815;28;20026;-81
2024/01/20 02:29:43;;;;;;;31.98;13.68;;;5.90;99.90;;;;;;5030257;28;20037;-81
2024/01/20 02:32:09;;;;;;;30.70;13.77;;;5.90;99.90;;;;;;5008079;28;20022;-80
2024/01/20 02:34:37;;;;;;;35.90;15.40;;;5.90;99.90;;;;;;5026141;28;20022;-82
2024/01/20 02:37:04;;;;;;;30.95;13.27;;;5.90;99.90;;;;;;5024030;28;20013;-81
2024/01/20 02:39:29;;;;;;;34.67;13.95;;;5.90;99.90;;;;;;5010327;28;20376;-81
2024/01/20 02:41:55;;;;;;;37.47;15.10;;;5.90;99.90;;;;;;5012353;28;20033;-81
2024/01/20 02:44:20;;;;;;;35.08;13.43;;;5.90;99.90;;;;;;5011351;28;20021;-80
2024/01/20 02:46:46;;;;;;;36.70;13.93;;;5.90;99.90;;;;;;5009362;28;20040;-82
2024/01/20 02:49:11;;;;;;;31.65;14.27;;;5.90;99.90;;;;;;5011278;28;20075;-81
2024/01/20 02:51:37;;;;;;;31.02;12.73;;;5.90;99.90;;;;;;5029472;28;20029;-82
2024/01/20 02:54:02;;;;;;;35.75;13.95;;;5.90;99.90;;;;;;5014983;28;20041;-81
2024/01/20 02:56:28;;;;;;;37.83;13.57;;;5.90;99.90;;;;;;5009862;28;20057;-81
2024/01/20 02:58:54;;;;;;;33.15;13.73;;;5.90;99.90;;;;;;5027127;28;20025;-82
2024/01/20 03:01:19;;;;;;;34.25;14.63;;;5.90;99.90;;;;;;5024120;28;20048;-81
2024/01/20 03:03:45;;;;;;;38.38;13.85;;;5.90;99.90;;;;;;5031197;28;20021;-82
2024/01/20 03:06:11;;;;;;;38.08;14.02;;;5.90;99.90;;;;;;5014010;28;20391;-81
2024/01/20 03:08:37;;;;;;;35.10;14.27;;;5.90;99.90;;;;;;5011230;28;20025;-82
2024/01/20 03:11:02;;;;;;;31.30;13.38;;;5.90;99.90;;;;;;5012192;28;20553;-81
2024/01/20 03:13:28;;;;;;;40.25;15.00;;;6.00;99.90;;;;;;5022010;28;20553;-81
2024/01/20 03:15:54;;;;;;;33.28;14.88;;;5.90;99.90;;;;;;5009285;28;20024;-82
2024/01/20 03:18:19;;;;;;;36.00;14.32;;;5.90;99.90;;;;;;5019136;28;20121;-80
2024/01/20 03:20:45;;;;;;;33.67;13.77;;;5.90;99.90;;;;;;5011551;28;20029;-82
2024/01/20 03:23:11;;;;;;;40.25;14.65;;;5.90;99.90;;;;;;5006731;28;20108;-81
2024/01/20 03:25:36;;;;;;;37.78;14.95;;;5.90;99.90;;;;;;5025292;28;20097;-82
2024/01/20 03:28:02;;;;;;;27.27;12.20;;;5.90;99.90;;;;;;5015662;28;20436;-82
2024/01/20 03:30:28;;;;;;;35.83;13.88;;;5.90;99.90;;;;;;5011874;28;20025;-82
2024/01/20 03:32:53;;;;;;;32.95;13.35;;;5.90;99.90;;;;;;5011328;28;20025;-81
2024/01/20 03:35:19;;;;;;;38.17;13.77;;;5.90;99.90;;;;;;5026919;28;20033;-81
2024/01/20 03:37:44;;;;;;;37.55;13.68;;;5.90;99.90;;;;;;5011137;28;20026;-81
2024/01/20 03:40:10;;;;;;;35.85;15.05;;;5.90;99.90;;;;;;5009322;28;20013;-82
2024/01/20 03:42:35;;;;;;;34.58;13.85;;;5.90;99.90;;;;;;5011836;28;20037;-82
2024/01/20 03:45:01;;;;;;;32.33;13.00;;;5.90;99.90;;;;;;5014483;28;20025;-83
2024/01/20 03:47:27;;;;;;;33.50;12.93;;;5.90;99.90;;;;;;5031339;28;20034;-81
2024/01/20 03:49:52;;;;;;;29.80;12.38;;;5.90;99.90;;;;;;5015966;28;20029;-81
2024/01/20 03:52:18;;;;;;;33.35;13.20;;;5.90;99.90;;;;;;5030987;28;20029;-82
2024/01/20 03:54:43;;;;;;;27.15;11.43;;;5.90;99.90;;;;;;5033517;28;20483;-81
2024/01/20 03:57:09;;;;;;;36.15;13.52;;;5.90;99.90;;;;;;5016236;28;20100;-81
2024/01/20 03:59:37;;;;;;;30.63;12.90;;;5.90;99.90;;;;;;5014098;28;20084;-81
2024/01/20 04:02:02;;;;;;;31.33;14.20;;;5.90;99.90;;;;;;5030209;28;20036;-82
2024/01/20 04:04:28;;;;;;;30.67;12.32;;;5.90;99.90;;;;;;5015626;28;20025;-81
2024/01/20 04:06:53;;;;;;;32.78;14.75;;;5.90;99.90;;;;;;5037664;28;20471;-81
2024/01/20 04:09:19;;;;;;;34.35;13.48;;;5.90;99.90;;;;;;5016268;28;20033;-81
2024/01/20 04:11:45;;;;;;;38.13;12.73;;;5.90;99.90;;;;;;5031055;28;20029;-82
2024/01/20 04:14:11;;;;;;;32.65;13.10;;;5.90;99.90;;;;;;5009213;28;20022;-80
2024/01/20 04:16:36;;;;;;;32.42;13.88;;;5.90;99.90;;;;;;5016944;28;20100;-81
2024/01/20 04:19:02;;;;;;;30.33;13.88;;;5.90;99.90;;;;;;5032475;28;20024;-81
2024/01/20 04:21:28;;;;;;;30.58;13.65;;;5.90;99.90;;;;;;5015020;28;20047;-81
2024/01/20 04:23:53;;;;;;;31.00;12.48;;;5.90;99.90;;;;;;5015059;28;20018;-81
2024/01/20 04:26:19;;;;;;;34.40;13.73;;;5.90;99.90;;;;;;5029924;28;20033;-82
2024/01/20 04:28:44;;;;;;;32.25;13.27;;;5.90;99.90;;;;;;5033366;28;20026;-82
2024/01/20 04:31:10;;;;;;;27.73;12.85;;;5.90;99.90;;;;;;5032868;28;20061;-82
2024/01/20 04:33:36;;;;;;;36.17;14.07;;;5.90;99.90;;;;;;5017753;28;20033;-82
2024/01/20 04:36:02;;;;;;;37.28;14.05;;;5.90;99.90;;;;;;5033896;28;20157;-81
2024/01/20 04:38:28;;;;;;;35.10;14.55;;;5.90;99.90;;;;;;5013244;28;20048;-81
2024/01/20 04:40:53;;;;;;;38.63;14.02;;;5.90;99.90;;;;;;5014844;28;20026;-82
2024/01/20 04:43:20;;;;;;;34.45;14.15;;;5.90;99.90;;;;;;5035641;28;20427;-81
2024/01/20 04:45:45;;;;;;;34.22;13.73;;;5.90;99.90;;;;;;5014848;28;20029;-82
2024/01/20 04:48:11;;;;;;;39.67;14.55;;;5.80;99.90;;;;;;5033701;28;20026;-81
2024/01/20 04:50:37;;;;;;;31.35;13.30;;;5.90;99.90;;;;;;5014476;28;20032;-82
2024/01/20 04:53:02;;;;;;;37.20;14.77;;;5.90;99.90;;;;;;5014575;28;20117;-81
2024/01/20 04:55:28;;;;;;;32.08;13.75;;;5.80;99.90;;;;;;5014673;28;20476;-82
2024/01/20 04:57:53;;;;;;;33.72;12.60;;;5.80;99.90;;;;;;5016559;28;20475;-81
2024/01/20 05:00:19;;;;;;;32.78;13.18;;;5.80;99.90;;;;;;5014397;28;20028;-81
2024/01/20 05:02:45;;;;;;;35.28;13.50;;;5.90;99.90;;;;;;5015070;28;20092;-81
2024/01/20 05:05:10;;;;;;;36.58;13.50;;;5.80;99.90;;;;;;5014769;28;20078;-81
2024/01/20 05:07:36;;;;;;;39.35;13.73;;;5.80;99.90;;;;;;5012333;28;20041;-81
2024/01/20 05:10:02;;;;;;;44.33;14.50;;;5.80;99.90;;;;;;5019402;28;20020;-81
2024/01/20 05:12:28;;;;;;;35.35;13.90;;;5.80;99.90;;;;;;5026986;28;20484;-81
2024/01/20 05:14:55;;;;;;;36.28;13.15;;;5.80;99.90;;;;;;5029887;28;20376;-81
2024/01/20 05:17:20;;;;;;;33.22;14.00;;;5.80;99.90;;;;;;5029131;28;20113;-80
2024/01/20 05:19:46;;;;;;;44.47;14.90;;;5.80;99.90;;;;;;5013898;28;20112;-81
2024/01/20 05:22:11;;;;;;;36.28;14.55;;;5.80;99.90;;;;;;5027695;28;20029;-81
2024/01/20 05:24:37;;;;;;;34.03;13.13;;;5.80;99.90;;;;;;5031307;28;20060;-81
2024/01/20 05:27:03;;;;;;;35.83;12.98;;;5.80;99.90;;;;;;5013984;28;20511;-81
2024/01/20 05:29:28;;;;;;;35.25;14.18;;;5.90;99.90;;;;;;5029084;28;20547;-81
2024/01/20 05:31:54;;;;;;;38.05;14.63;;;5.80;99.90;;;;;;5013547;28;20075;-82
2024/01/20 05:34:19;;;;;;;36.53;13.75;;;5.80;99.90;;;;;;5013666;28;20079;-82
2024/01/20 05:36:45;;;;;;;35.10;14.23;;;5.80;99.90;;;;;;5019644;28;20168;-81
2024/01/20 05:39:10;;;;;;;36.03;14.55;;;5.80;99.90;;;;;;5014111;28;20104;-81
2024/01/20 05:41:36;;;;;;;42.42;14.43;;;5.90;99.90;;;;;;5012061;28;20033;-82
2024/01/20 05:44:02;;;;;;;39.45;14.68;;;5.80;99.90;;;;;;5013667;28;20021;-83
2024/01/20 05:46:28;;;;;;;36.42;14.00;;;5.80;99.90;;;;;;5013654;28;20554;-81
2024/01/20 05:48:54;;;;;;;35.50;14.70;;;5.80;99.90;;;;;;5030923;28;20101;-81
2024/01/20 05:51:19;;;;;;;37.17;14.65;;;5.80;99.90;;;;;;5013030;28;20033;-81
2024/01/20 05:53:45;;;;;;;36.47;12.88;;;5.80;99.90;;;;;;5025385;28;20052;-81
2024/01/20 05:56:11;;;;;;;43.78;14.57;;;5.80;99.90;;;;;;5013349;28;20018;-81
2024/01/20 05:58:37;;;;;;;40.40;14.88;;;5.80;99.90;;;;;;5030982;28;20025;-81
2024/01/20 06:01:02;;;;;;;36.63;15.40;;;5.80;99.90;;;;;;5033339;28;20028;-81
2024/01/20 06:03:28;;;;;;;34.17;14.60;;;5.80;99.90;;;;;;5012909;28;20487;-81
2024/01/20 06:05:54;;;;;;;39.53;15.68;;;5.80;99.90;;;;;;5028324;28;20471;-82
2024/01/20 06:08:20;;;;;;;43.70;15.18;;;5.80;99.90;;;;;;5012605;28;20025;-82
2024/01/20 06:10:45;;;;;;;39.22;15.52;;;5.80;99.90;;;;;;5034112;28;20041;-81
2024/01/20 06:13:11;;;;;;;41.70;15.93;;;5.80;99.90;;;;;;5017450;28;20108;-81
2024/01/20 06:15:37;;;;;;;35.63;14.00;;;5.80;99.90;;;;;;5012600;28;20025;-81
2024/01/20 06:18:03;;;;;;;41.72;16.48;;;5.80;99.90;;;;;;5029353;28;20018;-81
2024/01/20 06:20:29;;;;;;;38.55;14.77;;;5.80;99.90;;;;;;5034444;28;20052;-81
2024/01/20 06:22:54;;;;;;;48.35;16.05;;;5.80;99.90;;;;;;5033472;28;20048;-81
2024/01/20 06:25:20;;;;;;;48.92;16.90;;;5.80;99.90;;;;;;5014911;28;20080;-81
2024/01/20 06:27:45;;;;;;;50.00;15.77;;;5.80;99.90;;;;;;5027698;28;20029;-82
2024/01/20 06:30:11;;;;;;;43.50;15.60;;;5.80;99.90;;;;;;5012889;28;20021;-81
2024/01/20 06:32:37;;;;;;;48.45;17.15;;;5.80;99.90;;;;;;5033009;28;20483;-81
2024/01/20 06:35:03;;;;;;;43.28;17.15;;;5.80;99.90;;;;;;5012505;28;20071;-81
2024/01/20 06:37:28;;;;;;;42.55;16.38;;;5.80;99.90;;;;;;5012812;28;20080;-81
2024/01/20 06:39:54;;;;;;;42.65;15.27;;;5.80;99.90;;;;;;5012493;28;20009;-81
2024/01/20 06:42:19;;;;;;;42.35;15.43;;;5.80;99.90;;;;;;5026485;28;20029;-80
2024/01/20 06:44:45;;;;;;;43.17;16.75;;;5.80;99.90;;;;;;5011571;28;20057;-82
2024/01/20 06:47:11;;;;;;;40.00;14.98;;;5.80;99.90;;;;;;5029300;28;20475;-80
2024/01/20 06:49:40;;;;;;;46.17;16.80;;;5.80;99.90;;;;;;5029428;28;20454;-82
2024/01/20 06:52:06;;;;;;;41.13;15.95;;;5.80;99.90;;;;;;5009575;28;20033;-82
2024/01/20 06:54:31;;;;;;;43.67;16.02;;;5.80;99.90;;;;;;5028340;28;20018;-81
2024/01/20 06:56:57;;;;;;;45.03;16.30;;;5.80;99.90;;;;;;5028241;28;20029;-81
2024/01/20 06:59:23;;;;;;;45.78;15.38;;;5.80;99.90;;;;;;5014692;28;20013;-82
2024/01/20 07:01:48;;;;;;;45.15;16.52;;;5.80;99.90;;;;;;5010226;28;20029;-81
2024/01/20 07:04:14;;;;;;;46.10;17.77;;;5.80;99.90;;;;;;5013230;28;20068;-81
2024/01/20 07:06:39;;;;;;;43.65;17.45;;;5.80;99.90;;;;;;5027955;28;20410;-81
2024/01/20 07:09:05;;;;;;;48.33;18.13;;;5.80;99.90;;;;;;5032976;28;20433;-81
2024/01/20 07:11:33;;;;;;;50.28;17.88;;;5.80;99.90;;;;;;5014113;28;20463;-81
2024/01/20 07:13:58;;;;;;;42.75;16.60;;;5.80;99.90;;;;;;5013417;28;20026;-81
2024/01/20 07:16:24;;;;;;;45.30;17.33;;;5.80;99.90;;;;;;5015101;28;20529;-81
2024/01/20 07:18:49;;;;;;;49.42;17.08;;;5.80;99.90;;;;;;5011290;28;20024;-82
2024/01/20 07:21:15;;;;;;;52.80;19.35;;;5.80;99.90;;;;;;5010250;28;20535;-81
2024/01/20 07:23:40;;;;;;;50.53;17.90;;;5.80;99.90;;;;;;5011407;28;20476;-82
2024/01/20 07:26:06;;;;;;;42.67;15.90;;;5.80;99.90;;;;;;5011084;28;20064;-82
2024/01/20 07:28:32;;;;;;;64.80;18.15;;;5.80;99.90;;;;;;5029026;28;20427;-81
2024/01/20 07:30:58;;;;;;;50.53;18.90;;;5.80;99.90;;;;;;5025238;28;20034;-82
2024/01/20 07:33:23;;;;;;;44.22;15.93;;;5.80;99.90;;;;;;5027167;28;20021;-81
2024/01/20 07:35:49;;;;;;;49.42;17.40;;;5.80;99.90;;;;;;5028826;28;20021;-81
2024/01/20 07:38:14;;;;;;;50.13;17.95;;;5.80;99.90;;;;;;5028806;28;20391;-82
2024/01/20 07:40:40;;;;;;;51.28;19.30;;;5.80;99.90;;;;;;4943383;28;2001615;-81
2024/01/20 07:43:06;;;;;;;49.80;17.65;;;5.80;99.90;;;;;;5012790;28;20033;-82
2024/01/20 07:45:32;;;;;;;55.03;18.48;;;5.80;99.90;;;;;;5031684;28;20570;-81
2024/01/20 07:48:01;;;;;;;46.60;16.05;;;5.80;99.90;;;;;;5015140;28;20113;-82
2024/01/20 07:50:27;;;;;;;54.88;16.55;;;5.80;99.90;;;;;;5023518;28;20028;-82
2024/01/20 07:52:52;;;;;;;55.80;18.45;;;5.80;99.90;;;;;;5011985;28;20108;-81
2024/01/20 07:55:18;;;;;;;44.55;17.40;;;5.70;99.90;;;;;;5030036;28;20107;-81
2024/01/20 07:57:43;;;;;;;49.70;18.35;;;5.70;99.90;;;;;;5012051;28;20491;-81
2024/01/20 08:00:13;;;;;;;50.53;17.88;;;5.80;99.90;;;;;;5029191;28;20018;-82
2024/01/20 08:02:39;;;;;;;57.15;18.27;;;5.70;99.90;;;;;;5031947;28;20063;-81
2024/01/20 08:05:05;;;;;;;48.33;17.83;;;5.80;99.90;;;;;;5013018;28;20075;-81
2024/01/20 08:07:32;;;;;;;53.10;18.40;;;5.80;99.90;;;;;;5029455;28;20096;-81
2024/01/20 08:09:57;;;;;;;47.88;15.60;;;5.80;99.90;;;;;;5011682;28;20049;-81
2024/01/20 08:12:23;;;;;;;46.28;18.63;;;5.80;99.90;;;;;;5015030;28;20095;-81
2024/01/20 08:14:48;;;;;;;50.65;18.20;;;5.80;99.90;;;;;;5009676;28;20061;-81
2024/01/20 08:17:14;;;;;;;54.22;19.25;;;5.80;99.90;;;;;;5011576;28;20021;-81
2024/01/20 08:19:40;;;;;;;51.55;19.95;;;5.80;99.90;;;;;;5012134;28;20020;-81
2024/01/20 08:22:06;;;;;;;60.10;18.30;;;5.80;99.90;;;;;;5011586;28;20428;-81
2024/01/20 08:24:32;;;;;;;49.53;18.00;;;5.80;99.90;;;;;;5011421;28;20025;-81
2024/01/20 08:26:57;;;;;;;64.80;20.85;;;5.80;99.90;;;;;;5032161;28;20570;-81
2024/01/20 08:29:23;;;;;;;55.33;18.65;;;5.80;99.90;;;;;;5028999;28;20030;-81
2024/01/20 08:31:49;;;;;;;51.47;19.05;;;5.80;99.90;;;;;;5012648;28;20071;-81
2024/01/20 08:34:14;;;;;;;54.67;18.90;;;5.80;99.90;;;;;;5015556;28;20021;-81
2024/01/20 08:36:40;;;;;;;46.40;18.25;;;5.80;99.90;;;;;;5014795;28;20082;-81
2024/01/20 08:39:06;;;;;;;53.60;19.77;;;5.80;99.90;;;;;;5014721;28;20124;-81
2024/01/20 08:41:32;;;;;;;54.72;17.88;;;5.80;99.90;;;;;;5018721;28;20078;-80
2024/01/20 08:43:57;;;;;;;49.83;17.90;;;5.80;99.90;;;;;;5033681;28;20029;-81
2024/01/20 08:46:25;;;;;;;55.33;19.55;;;5.80;99.90;;;;;;5032178;28;20032;-81
2024/01/20 08:48:50;;;;;;;53.95;20.80;;;5.80;99.90;;;;;;5017564;28;20026;-80
2024/01/20 08:51:16;;;;;;;55.63;18.73;;;5.80;99.90;;;;;;5033782;28;20030;-82
2024/01/20 08:53:42;;;;;;;49.70;19.02;;;5.80;99.90;;;;;;5017209;28;20021;-81
2024/01/20 08:56:08;;;;;;;54.13;18.08;;;5.80;99.90;;;;;;5033302;28;20025;-81
2024/01/20 08:58:33;;;;;;;61.53;19.55;;;5.80;99.90;;;;;;5010985;28;20026;-82
2024/01/20 09:00:59;;;;;;;53.03;20.60;;;5.80;99.90;;;;;;5014579;28;20018;-81
2024/01/20 09:03:25;;;;;;;60.50;19.27;;;5.80;99.90;;;;;;5034455;28;20041;-82
2024/01/20 09:05:50;;;;;;;52.55;19.63;;;5.80;99.90;;;;;;5014153;28;20017;-80
2024/01/20 09:08:16;;;;;;;58.53;19.08;;;5.80;99.90;;;;;;5012964;28;20123;-82
2024/01/20 09:10:41;;;;;;;52.42;18.23;;;5.80;99.90;;;;;;5013610;28;20080;-81
2024/01/20 09:13:07;;;;;;;51.08;19.10;;;5.80;99.90;;;;;;5014291;28;20018;-82
2024/01/20 09:15:33;;;;;;;51.05;17.83;;;5.80;99.90;;;;;;5013907;28;20022;-80
2024/01/20 09:17:58;;;;;;;55.00;19.23;;;5.80;99.90;;;;;;5033987;28;20032;-81
2024/01/20 09:20:24;;;;;;;45.20;16.98;;;5.90;99.90;;;;;;5014119;28;20061;-81
2024/01/20 09:22:49;;;;;;;49.80;18.48;;;5.90;99.90;;;;;;5014200;28;20499;-82
2024/01/20 09:25:16;;;;;;;53.13;17.88;;;5.90;99.90;;;;;;5014617;28;20048;-81
2024/01/20 09:27:42;;;;;;;59.50;21.58;;;5.90;99.90;;;;;;5016027;28;20078;-80
2024/01/20 09:30:08;;;;;;;49.63;18.77;;;5.90;99.90;;;;;;5014070;28;20022;-81
2024/01/20 09:32:35;;;;;;;62.05;19.75;;;5.90;99.90;;;;;;5013081;28;20021;-81
2024/01/20 09:35:01;;;;;;;58.17;20.10;;;5.90;99.90;;;;;;5031446;28;20040;-82
2024/01/20 09:37:26;;;;;;;49.95;18.67;;;6.00;99.90;;;;;;5013816;28;20033;-82
2024/01/20 09:39:52;;;;;;;54.17;18.10;;;6.00;99.90;;;;;;5013799;28;20100;-81
2024/01/20 09:42:18;;;;;;;57.80;18.35;;;6.00;99.90;;;;;;5014058;28;20425;-82
2024/01/20 09:44:44;;;;;;;60.33;18.80;;;6.00;99.90;;;;;;5012542;28;20048;-81
2024/01/20 09:47:11;;;;;;;49.30;18.52;;;6.00;99.90;;;;;;5013651;28;20025;-81
2024/01/20 09:49:37;;;;;;;54.35;19.45;;;5.90;99.90;;;;;;5016994;28;20036;-81
2024/01/20 09:52:09;;;;;;;48.55;19.65;;;6.00;99.90;;;;;;5013620;28;20077;-83
2024/01/20 09:54:41;;;;;;;54.95;19.42;;;5.90;99.90;;;;;;5014952;28;20488;-81
2024/01/20 09:57:11;;;;;;;50.80;17.60;;;6.00;99.90;;;;;;5013396;28;20030;-82
2024/01/20 09:59:39;;;;;;;63.45;18.38;;;5.90;99.90;;;;;;5013446;28;20403;-81
2024/01/20 10:02:06;;;;;;;54.25;19.02;;;5.90;99.90;;;;;;5013266;28;20076;-81
2024/01/20 10:04:34;;;;;;;57.53;19.30;;;6.00;99.90;;;;;;5013132;28;20408;-81
2024/01/20 10:07:00;;;;;;;62.10;20.52;;;6.10;99.90;;;;;;5013299;28;20025;-81
2024/01/20 10:09:28;;;;;;;46.90;17.52;;;6.10;99.90;;;;;;5012921;28;20396;-82
2024/01/20 10:11:53;;;;;;;54.30;19.20;;;6.20;99.90;;;;;;5013365;28;20112;-81
2024/01/20 10:14:19;;;;;;;54.08;18.77;;;6.20;99.90;;;;;;5013681;28;20787;-82
2024/01/20 10:16:44;;;;;;;63.65;20.05;;;6.30;99.90;;;;;;5015713;28;20026;-81
2024/01/20 10:19:10;;;;;;;53.65;18.33;;;6.30;99.90;;;;;;5013071;28;20020;-82
2024/01/20 10:21:40;;;;;;;52.08;19.00;;;6.30;99.90;;;;;;5012941;28;20028;-81
2024/01/20 10:24:09;;;;;;;57.25;19.52;;;6.40;99.90;;;;;;5012952;28;20533;-83
2024/01/20 10:26:44;;;;;;;54.88;18.88;;;6.40;99.90;;;;;;5030699;28;20034;-82
2024/01/20 10:29:09;;;;;;;56.35;20.20;;;6.40;99.90;;;;;;5010309;28;20021;-81
2024/01/20 10:31:35;;;;;;;52.95;18.92;;;6.40;99.90;;;;;;5028216;28;20456;-82
2024/01/20 10:34:01;;;;;;;58.47;20.08;;;6.40;99.90;;;;;;5012686;28;20498;-81
2024/01/20 10:36:27;;;;;;;55.33;18.63;;;6.50;99.90;;;;;;5012675;28;20029;-81
2024/01/20 10:38:53;;;;;;;60.10;19.40;;;6.50;99.90;;;;;;5016405;28;20109;-81
2024/01/20 10:41:23;;;;;;;59.08;20.17;;;6.50;99.90;;;;;;5029938;28;20120;-82
2024/01/20 10:43:58;;;;;;;49.97;19.10;;;6.60;99.90;;;;;;5014471;28;20505;-82
2024/01/20 10:46:31;;;;;;;54.85;18.92;;;6.50;99.90;;;;;;5011455;28;20487;-81
2024/01/20 10:49:02;;;;;;;48.13;18.48;;;6.60;99.90;;;;;;5012977;28;20415;-81
2024/01/20 10:51:28;;;;;;;50.78;18.00;;;6.60;99.90;;;;;;5012506;28;20032;-81
2024/01/20 10:53:58;;;;;;;51.40;18.95;;;6.70;99.90;;;;;;5012155;28;20022;-83
2024/01/20 10:56:26;;;;;;;39.77;16.37;;;6.70;99.90;;;;;;5028763;28;20395;-82
2024/01/20 10:59:01;;;;;;;53.65;19.45;;;6.70;99.90;;;;;;5009887;28;20033;-81
2024/01/20 11:01:28;;;;;;;50.85;17.98;;;6.80;99.90;;;;;;5025881;28;20112;-81
2024/01/20 11:03:53;;;;;;;52.33;16.95;;;6.80;99.90;;;;;;5015445;28;20452;-81
2024/01/20 11:06:24;;;;;;;49.55;17.58;;;6.80;99.90;;;;;;5011246;28;20437;-82
2024/01/20 11:08:51;;;;;;;50.10;17.25;;;6.90;99.90;;;;;;5026508;28;20031;-81
2024/01/20 11:11:19;;;;;;;43.72;18.52;;;6.90;99.90;;;;;;5013801;28;20036;-81
2024/01/20 11:13:48;;;;;;;38.90;15.65;;;6.90;99.90;;;;;;5011790;28;20017;-82
2024/01/20 11:16:21;;;;;;;48.55;16.20;;;6.80;99.90;;;;;;5032534;28;20040;-82
2024/01/20 11:18:47;;;;;;;48.00;15.18;;;6.80;99.90;;;;;;5014745;28;20021;-81
2024/01/20 11:21:16;;;;;;;43.42;15.63;;;6.80;99.90;;;;;;5009795;28;20101;-82
2024/01/20 11:23:58;;;;;;;40.20;15.03;;;6.80;99.90;;;;;;5029886;28;20088;-81
2024/01/20 11:26:32;;;;;;;42.60;15.13;;;6.80;99.90;;;;;;5026327;28;20346;-81
2024/01/20 11:28:59;;;;;;;38.65;14.15;;;6.80;99.90;;;;;;5032954;28;20056;-82
2024/01/20 11:31:32;;;;;;;41.28;15.25;;;6.80;99.90;;;;;;5011770;28;20026;-81
2024/01/20 11:34:02;;;;;;;36.47;14.68;;;6.90;99.90;;;;;;5031706;28;20048;-82
2024/01/20 11:36:29;;;;;;;39.63;14.15;;;6.90;99.90;;;;;;5009131;28;20113;-82
2024/01/20 11:38:57;;;;;;;35.15;13.52;;;6.90;99.90;;;;;;5010944;28;20427;-81
2024/01/20 11:41:22;;;;;;;41.03;14.25;;;6.90;99.90;;;;;;5031887;28;20083;-81
2024/01/20 11:43:48;;;;;;;36.05;13.25;;;7.00;99.90;;;;;;5025497;28;20026;-81
2024/01/20 11:46:14;;;;;;;31.92;12.98;;;7.10;99.90;;;;;;5012120;28;20044;-82
2024/01/20 11:48:40;;;;;;;35.10;13.45;;;7.00;99.90;;;;;;5013575;28;20064;-80
2024/01/20 11:51:06;;;;;;;29.95;12.27;;;7.00;99.90;;;;;;5012331;28;20468;-82
2024/01/20 11:53:33;;;;;;;40.97;12.85;;;6.90;99.90;;;;;;5012689;28;20032;-81
2024/01/20 11:55:59;;;;;;;31.60;12.93;;;7.00;99.90;;;;;;5013304;28;20072;-82
2024/01/20 11:58:25;;;;;;;31.80;11.68;;;7.00;99.90;;;;;;5030681;28;20524;-82
2024/01/20 12:00:53;;;;;;;29.98;11.90;;;6.90;99.90;;;;;;5012829;28;20065;-81
2024/01/20 12:03:19;;;;;;;28.77;10.50;;;6.90;99.90;;;;;;5011808;28;20033;-82
2024/01/20 12:05:45;;;;;;;28.95;10.88;;;6.90;99.90;;;;;;5011230;28;20068;-81
2024/01/20 12:08:11;;;;;;;25.95;10.07;;;6.90;99.90;;;;;;5012445;28;20017;-82
2024/01/20 12:10:37;;;;;;;30.40;10.80;;;6.80;99.90;;;;;;5015549;28;20118;-82
2024/01/20 12:13:03;;;;;;;28.27;9.48;;;6.80;99.90;;;;;;5014861;28;20488;-81
2024/01/20 12:15:38;;;;;;;23.63;8.63;;;6.80;99.90;;;;;;5033214;28;20021;-81
2024/01/20 12:18:04;;;;;;;21.85;8.32;;;6.80;99.90;;;;;;5019714;28;20399;-82
2024/01/20 12:20:30;;;;;;;18.40;7.68;;;6.80;99.90;;;;;;5032862;28;20017;-82
2024/01/20 12:22:57;;;;;;;20.70;8.80;;;6.70;99.90;;;;;;5015236;28;20032;-83
2024/01/20 12:25:26;;;;;;;17.98;8.57;;;6.60;99.90;;;;;;5015123;28;20109;-81
2024/01/20 12:27:51;;;;;;;19.98;8.18;;;6.70;99.90;;;;;;5019068;28;20056;-81
2024/01/20 12:30:17;;;;;;;20.13;6.95;;;6.60;99.90;;;;;;5035315;28;20057;-81
2024/01/20 12:32:43;;;;;;;19.00;7.47;;;6.60;99.90;;;;;;5031744;28;20480;-81